createdAt,value
2023-11-29T00:01:33.235Z,39.33
2023-11-29T00:04:01.824Z,37.73
2023-11-29T00:06:30.478Z,35.17
2023-11-29T00:08:59.061Z,41.03
2023-11-29T00:11:28.338Z,29.57
2023-11-29T00:13:58.362Z,37.43
2023-11-29T00:16:26.883Z,36.93
2023-11-29T00:18:55.517Z,36.27
2023-11-29T00:21:24.083Z,32.80
2023-11-29T00:23:52.606Z,33.57
2023-11-29T00:26:24.095Z,34.40
2023-11-29T00:28:53.206Z,39.20
2023-11-29T00:31:23.311Z,33.47
2023-11-29T00:33:51.822Z,37.13
2023-11-29T00:36:20.370Z,37.83
2023-11-29T00:38:48.937Z,34.30
2023-11-29T00:41:17.462Z,33.67
2023-11-29T00:43:46.267Z,30.07
2023-11-29T00:46:15.429Z,31.23
2023-11-29T00:48:45.369Z,40.60
2023-11-29T00:51:13.907Z,31.63
2023-11-29T00:53:42.492Z,29.27
2023-11-29T00:56:11.568Z,35.07
2023-11-29T00:58:40.089Z,29.80
2023-11-29T01:01:08.733Z,29.93
2023-11-29T01:03:37.342Z,30.60
2023-11-29T01:06:08.176Z,34.47
2023-11-29T01:08:36.939Z,33.30
2023-11-29T01:11:06.611Z,30.20
2023-11-29T01:13:35.211Z,37.47
2023-11-29T01:16:03.794Z,32.60
2023-11-29T01:18:34.432Z,29.33
2023-11-29T01:21:03.737Z,29.33
2023-11-29T01:23:33.789Z,28.70
2023-11-29T01:26:02.572Z,31.07
2023-11-29T01:28:31.128Z,33.60
2023-11-29T01:30:59.611Z,36.63
2023-11-29T01:33:28.323Z,33.67
2023-11-29T01:35:56.845Z,42.33
2023-11-29T01:38:25.701Z,38.07
2023-11-29T01:41:02.288Z,35.90
2023-11-29T01:43:30.865Z,39.27
2023-11-29T01:45:59.829Z,40.03
2023-11-29T01:48:29.512Z,37.67
2023-11-29T01:50:59.514Z,29.93
2023-11-29T01:53:30.282Z,34.87
2023-11-29T01:56:00.373Z,34.77
2023-11-29T01:58:30.189Z,31.27
2023-11-29T02:01:03.068Z,30.17
2023-11-29T02:03:31.656Z,25.57
2023-11-29T02:06:00.480Z,29.63
2023-11-29T02:08:31.492Z,29.93
2023-11-29T02:11:01.534Z,26.60
2023-11-29T02:13:30.094Z,28.10
2023-11-29T02:15:58.579Z,31.63
2023-11-29T02:18:27.120Z,30.70
2023-11-29T02:20:55.857Z,28.80
2023-11-29T02:23:27.429Z,34.37
2023-11-29T02:25:57.430Z,30.70
2023-11-29T02:28:25.875Z,26.90
2023-11-29T02:30:54.401Z,26.30
2023-11-29T02:33:23.186Z,26.43
2023-11-29T02:35:51.643Z,27.17
2023-11-29T02:38:20.884Z,23.03
2023-11-29T02:40:49.370Z,27.43
2023-11-29T02:43:19.410Z,20.60
2023-11-29T02:45:47.940Z,28.83
2023-11-29T02:48:16.483Z,26.00
2023-11-29T02:50:45.612Z,20.93
2023-11-29T02:53:14.193Z,22.30
2023-11-29T02:55:42.963Z,21.93
2023-11-29T02:58:11.656Z,23.00
2023-11-29T03:00:41.612Z,20.27
2023-11-29T03:03:10.302Z,21.87
2023-11-29T03:05:38.921Z,18.33
2023-11-29T03:08:09.363Z,20.30
2023-11-29T03:10:37.934Z,21.67
2023-11-29T03:13:06.440Z,19.30
2023-11-29T03:15:35.008Z,17.70
2023-11-29T03:18:05.409Z,18.73
2023-11-29T03:20:34.119Z,18.70
2023-11-29T03:23:02.624Z,18.37
2023-11-29T03:25:31.133Z,15.30
2023-11-29T03:27:59.742Z,15.37
2023-11-29T03:30:28.231Z,17.43
2023-11-29T03:32:56.760Z,19.63
2023-11-29T03:35:26.773Z,17.03
2023-11-29T03:37:55.439Z,14.73
2023-11-29T03:40:23.909Z,15.70
2023-11-29T03:42:52.336Z,13.77
2023-11-29T03:45:20.867Z,12.07
2023-11-29T03:47:50.224Z,13.97
2023-11-29T03:50:18.813Z,17.47
2023-11-29T03:52:49.143Z,15.03
2023-11-29T03:55:18.274Z,15.73
2023-11-29T03:57:46.886Z,17.37
2023-11-29T04:00:16.523Z,13.13
2023-11-29T04:02:45.122Z,12.43
2023-11-29T04:05:15.112Z,11.43
2023-11-29T04:07:43.929Z,12.40
2023-11-29T04:10:14.012Z,14.13
2023-11-29T04:12:42.929Z,12.00
2023-11-29T04:15:11.929Z,9.10
2023-11-29T04:17:40.564Z,10.70
2023-11-29T04:20:10.320Z,12.40
2023-11-29T04:22:39.633Z,9.30
2023-11-29T04:25:09.755Z,9.83
2023-11-29T04:27:39.800Z,9.27
2023-11-29T04:30:09.859Z,9.50
2023-11-29T04:32:38.538Z,10.73
2023-11-29T04:35:08.593Z,9.47
2023-11-29T04:37:37.128Z,11.70
2023-11-29T04:40:06.377Z,9.57
2023-11-29T04:42:34.886Z,8.93
2023-11-29T04:45:05.128Z,9.03
2023-11-29T04:47:33.678Z,10.07
2023-11-29T04:50:02.312Z,8.73
2023-11-29T04:52:32.114Z,9.93
2023-11-29T04:55:00.647Z,7.23
2023-11-29T04:57:29.278Z,9.17
2023-11-29T04:59:57.844Z,9.50
2023-11-29T05:02:28.384Z,10.37
2023-11-29T05:04:57.119Z,10.03
2023-11-29T05:07:25.661Z,8.43
2023-11-29T05:09:54.579Z,9.13
2023-11-29T05:12:23.085Z,11.03
2023-11-29T05:14:51.751Z,7.33
2023-11-29T05:17:20.618Z,8.47
2023-11-29T05:19:51.600Z,9.30
2023-11-29T05:22:20.235Z,9.77
2023-11-29T05:24:48.756Z,9.10
2023-11-29T05:27:17.339Z,12.03
2023-11-29T05:29:45.914Z,7.00
2023-11-29T05:32:14.652Z,8.20
2023-11-29T05:34:43.157Z,6.93
2023-11-29T05:37:13.247Z,7.17
2023-11-29T05:39:41.653Z,8.13
2023-11-29T05:42:10.379Z,10.83
2023-11-29T05:44:38.963Z,7.57
2023-11-29T05:47:08.319Z,7.13
2023-11-29T05:49:37.013Z,8.90
2023-11-29T05:52:05.985Z,8.50
2023-11-29T05:54:38.680Z,8.17
2023-11-29T05:57:07.487Z,7.60
2023-11-29T05:59:37.559Z,9.60
2023-11-29T06:02:06.824Z,9.13
2023-11-29T06:04:35.473Z,9.53
2023-11-29T06:07:04.133Z,11.17
2023-11-29T06:09:32.751Z,8.50
2023-11-29T06:12:03.128Z,7.60
2023-11-29T06:14:31.671Z,9.70
2023-11-29T06:17:00.566Z,7.60
2023-11-29T06:19:29.502Z,7.63
2023-11-29T06:21:58.188Z,7.47
2023-11-29T06:24:26.948Z,8.47
2023-11-29T06:26:55.551Z,11.77
2023-11-29T06:29:25.514Z,10.60
2023-11-29T06:31:54.164Z,8.83
2023-11-29T06:34:23.080Z,8.80
2023-11-29T06:36:52.076Z,10.13
2023-11-29T06:39:20.942Z,9.80
2023-11-29T06:41:49.808Z,10.10
2023-11-29T06:44:18.588Z,9.50
2023-11-29T06:46:50.089Z,11.67
2023-11-29T06:49:18.807Z,13.37
2023-11-29T06:51:47.917Z,12.30
2023-11-29T06:54:16.428Z,18.50
2023-11-29T06:56:44.940Z,18.37
2023-11-29T06:59:13.533Z,20.47
2023-11-29T07:01:42.457Z,20.73
2023-11-29T07:04:12.802Z,19.13
2023-11-29T07:06:41.491Z,22.07
2023-11-29T07:09:10.403Z,22.57
2023-11-29T07:11:38.984Z,27.17
2023-11-29T07:14:08.161Z,26.27
2023-11-29T07:16:37.105Z,23.47
2023-11-29T07:19:06.753Z,23.90
2023-11-29T07:21:36.703Z,25.07
2023-11-29T07:24:06.884Z,28.63
2023-11-29T07:26:35.544Z,23.43
2023-11-29T07:29:04.949Z,25.37
2023-11-29T07:31:34.562Z,20.93
2023-11-29T07:34:03.202Z,28.87
2023-11-29T07:36:33.032Z,23.87
2023-11-29T07:39:03.418Z,26.47
2023-11-29T07:41:32.497Z,28.57
2023-11-29T07:44:01.188Z,30.40
2023-11-29T07:46:29.682Z,34.13
2023-11-29T07:49:00.928Z,28.80
2023-11-29T07:51:31.412Z,33.97
2023-11-29T07:54:00.297Z,28.03
2023-11-29T07:56:30.235Z,27.27
2023-11-29T07:58:58.995Z,24.23
2023-11-29T08:01:27.604Z,23.20
2023-11-29T08:03:56.232Z,23.87
2023-11-29T08:06:24.698Z,26.57
2023-11-29T08:08:53.222Z,24.27
2023-11-29T08:11:22.552Z,25.90
2023-11-29T08:13:52.904Z,27.20
2023-11-29T08:16:22.406Z,23.80
2023-11-29T08:18:53.213Z,24.93
2023-11-29T08:21:22.304Z,25.07
2023-11-29T08:23:50.850Z,25.17
2023-11-29T08:26:19.381Z,25.27
2023-11-29T08:28:47.908Z,21.30
2023-11-29T08:31:18.490Z,23.70
2023-11-29T08:33:47.035Z,24.53
2023-11-29T08:36:16.508Z,21.40
2023-11-29T08:38:45.095Z,21.00
2023-11-29T08:41:13.684Z,26.73
2023-11-29T08:43:42.226Z,25.97
2023-11-29T08:46:10.756Z,26.33
2023-11-29T08:48:40.910Z,35.53
2023-11-29T08:51:09.887Z,24.83
2023-11-29T08:53:43.253Z,39.53
2023-11-29T08:56:18.320Z,29.27
2023-11-29T08:58:47.807Z,28.03
2023-11-29T09:01:19.594Z,26.70
2023-11-29T09:03:50.387Z,26.23
2023-11-29T09:06:19.593Z,24.10
2023-11-29T09:08:48.910Z,24.17
2023-11-29T09:11:17.671Z,24.00
2023-11-29T09:13:50.294Z,21.67
2023-11-29T09:16:20.387Z,21.53
2023-11-29T09:18:50.661Z,34.67
2023-11-29T09:21:19.255Z,23.80
2023-11-29T09:23:47.959Z,21.63
2023-11-29T09:26:16.805Z,23.47
2023-11-29T09:28:45.318Z,19.40
2023-11-29T09:31:14.763Z,17.27
2023-11-29T09:33:44.150Z,19.83
2023-11-29T09:36:15.673Z,23.20
2023-11-29T09:38:44.211Z,21.70
2023-11-29T09:41:13.018Z,20.20
2023-11-29T09:43:42.433Z,25.23
2023-11-29T09:46:11.136Z,58.50
2023-11-29T09:48:39.998Z,44.70
2023-11-29T09:51:08.594Z,25.23
2023-11-29T09:53:38.723Z,24.47
2023-11-29T09:56:09.363Z,24.17
2023-11-29T09:58:37.848Z,22.87
2023-11-29T10:01:06.421Z,22.20
2023-11-29T10:03:36.206Z,22.50
2023-11-29T10:06:06.801Z,26.47
2023-11-29T10:08:35.568Z,26.67
2023-11-29T10:11:07.806Z,23.17
2023-11-29T10:13:36.230Z,27.50
2023-11-29T10:16:05.035Z,27.73
2023-11-29T10:18:34.225Z,22.17
2023-11-29T10:21:07.522Z,32.70
2023-11-29T10:23:40.746Z,19.77
2023-11-29T10:26:11.071Z,23.23
2023-11-29T10:28:41.668Z,25.00
2023-11-29T10:31:10.826Z,27.70
2023-11-29T10:33:42.227Z,28.47
2023-11-29T10:36:12.520Z,25.67
2023-11-29T10:38:45.934Z,25.67
2023-11-29T10:41:18.488Z,24.60
2023-11-29T10:43:49.495Z,23.93
2023-11-29T10:46:29.923Z,21.60
2023-11-29T10:49:06.430Z,28.40
2023-11-29T10:51:35.623Z,26.33
2023-11-29T10:54:06.380Z,24.40
2023-11-29T10:56:36.972Z,21.80
2023-11-29T10:59:15.925Z,19.73
2023-11-29T11:01:45.451Z,21.17
2023-11-29T11:04:14.535Z,24.83
2023-11-29T11:06:43.308Z,22.93
2023-11-29T11:09:34.139Z,22.43
2023-11-29T11:12:04.831Z,21.73
2023-11-29T11:14:47.247Z,26.73
2023-11-29T11:17:16.173Z,29.90
2023-11-29T11:19:46.600Z,22.07
2023-11-29T11:22:16.201Z,24.07
2023-11-29T11:25:05.936Z,20.10
2023-11-29T11:27:37.276Z,24.00
2023-11-29T11:30:22.214Z,21.43
2023-11-29T11:32:51.473Z,27.90
2023-11-29T11:35:36.984Z,31.03
2023-11-29T11:38:10.413Z,27.20
2023-11-29T11:40:40.642Z,26.07
2023-11-29T11:43:12.144Z,23.13
2023-11-29T11:45:46.776Z,29.50
2023-11-29T11:48:15.682Z,25.13
2023-11-29T11:50:44.245Z,30.20
2023-11-29T11:53:12.785Z,30.33
2023-11-29T11:55:43.007Z,33.43
2023-11-29T11:58:14.956Z,29.03
2023-11-29T12:00:43.700Z,28.73
2023-11-29T12:03:13.775Z,29.10
2023-11-29T12:05:43.226Z,29.33
2023-11-29T12:08:12.125Z,35.60
2023-11-29T12:10:41.210Z,31.03
2023-11-29T12:13:09.873Z,31.20
2023-11-29T12:15:39.943Z,35.97
2023-11-29T12:18:18.218Z,30.50
2023-11-29T12:20:47.200Z,30.63
2023-11-29T12:23:16.603Z,33.33
2023-11-29T12:25:55.867Z,22.63
2023-11-29T12:28:26.870Z,26.77
2023-11-29T12:31:00.124Z,28.23
2023-11-29T12:33:28.925Z,22.67
2023-11-29T12:35:57.574Z,24.63
2023-11-29T12:38:26.473Z,23.00
2023-11-29T12:40:55.450Z,26.67
2023-11-29T12:43:24.079Z,26.10
2023-11-29T12:45:52.636Z,30.00
2023-11-29T12:48:22.986Z,26.00
2023-11-29T12:50:51.557Z,24.13
2023-11-29T12:53:20.587Z,27.40
2023-11-29T12:55:49.162Z,24.30
2023-11-29T12:58:17.984Z,20.60
2023-11-29T13:00:47.545Z,24.43
2023-11-29T13:03:16.560Z,30.50
2023-11-29T13:05:47.121Z,24.13
2023-11-29T13:08:15.788Z,26.83
2023-11-29T13:10:44.493Z,24.27
2023-11-29T13:13:13.182Z,21.73
2023-11-29T13:15:41.864Z,25.07
2023-11-29T13:18:10.530Z,22.60
2023-11-29T13:20:39.290Z,24.80
2023-11-29T13:23:09.256Z,20.47
2023-11-29T13:25:38.039Z,24.63
2023-11-29T13:28:06.665Z,22.90
2023-11-29T13:30:35.228Z,22.30
2023-11-29T13:33:03.990Z,22.57
2023-11-29T13:35:32.545Z,27.73
2023-11-29T13:38:01.392Z,28.93
2023-11-29T13:40:31.528Z,23.10
2023-11-29T13:43:00.664Z,22.40
2023-11-29T13:45:29.229Z,22.37
2023-11-29T13:47:58.034Z,26.63
2023-11-29T13:50:26.781Z,23.67
2023-11-29T13:52:55.411Z,24.10
2023-11-29T13:55:24.254Z,28.70
2023-11-29T13:57:54.206Z,24.40
2023-11-29T14:00:23.334Z,27.77
2023-11-29T14:02:52.391Z,26.03
2023-11-29T14:05:22.613Z,29.87
2023-11-29T14:07:51.233Z,26.60
2023-11-29T14:10:20.594Z,27.07
2023-11-29T14:12:49.078Z,25.00
2023-11-29T14:15:19.492Z,23.73
2023-11-29T14:17:48.161Z,31.50
2023-11-29T14:20:19.076Z,27.10
2023-11-29T14:22:47.548Z,26.83
2023-11-29T14:25:16.121Z,26.50
2023-11-29T14:27:51.914Z,33.77
2023-11-29T14:30:27.123Z,34.60
2023-11-29T14:32:55.684Z,52.77
2023-11-29T14:35:24.207Z,46.03
2023-11-29T14:37:52.779Z,45.47
2023-11-29T14:40:21.481Z,40.63
2023-11-29T14:42:50.027Z,37.20
2023-11-29T14:45:18.602Z,37.77
2023-11-29T14:47:51.343Z,34.13
2023-11-29T14:50:19.987Z,33.13
2023-11-29T14:52:48.954Z,30.43
2023-11-29T14:55:17.753Z,34.83
2023-11-29T14:57:46.220Z,33.00
2023-11-29T15:00:16.223Z,35.37
2023-11-29T15:02:45.210Z,32.33
2023-11-29T15:05:15.181Z,37.17
2023-11-29T15:07:43.731Z,46.13
2023-11-29T15:10:12.232Z,45.73
2023-11-29T15:12:40.713Z,46.53
2023-11-29T15:15:10.270Z,42.17
2023-11-29T15:17:38.888Z,40.13
2023-11-29T15:20:09.506Z,46.50
2023-11-29T15:22:39.503Z,40.00
2023-11-29T15:25:14.750Z,31.73
2023-11-29T15:27:48.440Z,36.70
2023-11-29T15:30:17.387Z,43.53
2023-11-29T15:32:47.986Z,35.37
2023-11-29T15:35:18.407Z,30.00
2023-11-29T15:37:48.398Z,39.70
2023-11-29T15:40:17.718Z,36.53
2023-11-29T15:42:46.298Z,38.37
2023-11-29T15:45:14.872Z,37.43
2023-11-29T15:47:43.395Z,29.77
2023-11-29T15:50:12.741Z,35.53
2023-11-29T15:52:41.246Z,38.37
2023-11-29T15:55:11.700Z,36.10
2023-11-29T15:57:40.173Z,37.93
2023-11-29T16:00:10.288Z,51.60
2023-11-29T16:02:39.268Z,51.53
2023-11-29T16:05:08.522Z,43.17
2023-11-29T16:07:38.331Z,42.23
2023-11-29T16:10:07.907Z,32.07
2023-11-29T16:12:37.954Z,30.47
2023-11-29T16:15:07.708Z,31.47
2023-11-29T16:17:36.381Z,32.37
2023-11-29T16:20:05.166Z,29.03
2023-11-29T16:22:33.812Z,31.73
2023-11-29T16:25:02.311Z,30.27
2023-11-29T16:27:36.931Z,29.63
2023-11-29T16:30:08.738Z,32.77
2023-11-29T16:32:37.584Z,31.43
2023-11-29T16:35:07.506Z,30.97
2023-11-29T16:37:35.002Z,30.87
2023-11-29T16:40:03.492Z,32.57
2023-11-29T16:42:33.666Z,30.23
2023-11-29T16:45:02.347Z,37.93
2023-11-29T16:47:32.354Z,31.83
2023-11-29T16:50:01.240Z,28.30
2023-11-29T16:52:29.754Z,32.27
2023-11-29T16:54:58.596Z,27.27
2023-11-29T16:57:27.191Z,28.27
2023-11-29T16:59:55.862Z,25.87
2023-11-29T17:02:24.636Z,27.73
2023-11-29T17:04:54.900Z,29.33
2023-11-29T17:07:23.378Z,23.77
2023-11-29T17:09:51.814Z,23.93
2023-11-29T17:12:20.394Z,27.07
2023-11-29T17:14:50.467Z,31.07
2023-11-29T17:17:23.050Z,30.53
2023-11-29T17:19:54.193Z,26.57
2023-11-29T17:22:22.713Z,23.80
2023-11-29T17:24:51.282Z,25.37
2023-11-29T17:27:20.883Z,28.33
2023-11-29T17:29:49.715Z,136.13
2023-11-29T17:32:18.224Z,100.43
2023-11-29T17:34:46.716Z,39.60
2023-11-29T17:37:17.978Z,28.23
2023-11-29T17:39:46.690Z,25.97
2023-11-29T17:42:15.583Z,29.30
2023-11-29T17:44:44.123Z,21.50
2023-11-29T17:47:13.369Z,21.67
2023-11-29T17:49:41.868Z,18.60
2023-11-29T17:52:10.738Z,19.63
2023-11-29T17:54:40.751Z,21.37
2023-11-29T17:57:09.390Z,17.90
2023-11-29T17:59:38.237Z,18.13
2023-11-29T18:02:07.715Z,18.93
2023-11-29T18:04:36.675Z,14.53
2023-11-29T18:07:05.571Z,17.20
2023-11-29T18:09:34.109Z,16.17
2023-11-29T18:12:07.203Z,17.43
2023-11-29T18:14:35.773Z,15.90
2023-11-29T18:17:04.560Z,15.93
2023-11-29T18:19:33.582Z,15.63
2023-11-29T18:22:02.085Z,15.60
2023-11-29T18:24:30.542Z,20.50
2023-11-29T18:26:59.057Z,49.73
2023-11-29T18:29:30.095Z,48.37
2023-11-29T18:31:58.573Z,52.77
2023-11-29T18:34:27.123Z,46.40
2023-11-29T18:36:55.659Z,49.93
2023-11-29T18:39:24.252Z,46.60
2023-11-29T18:41:52.744Z,42.97
2023-11-29T18:44:21.879Z,36.03
2023-11-29T18:46:51.884Z,37.57
2023-11-29T18:49:21.157Z,38.73
2023-11-29T18:51:50.139Z,46.17
2023-11-29T18:54:18.731Z,47.33
2023-11-29T18:56:50.535Z,51.10
2023-11-29T18:59:19.575Z,39.67
2023-11-29T19:01:49.181Z,38.73
2023-11-29T19:04:23.303Z,36.87
2023-11-29T19:06:51.921Z,45.30
2023-11-29T19:09:21.419Z,44.30
2023-11-29T19:11:50.036Z,39.13
2023-11-29T19:14:18.797Z,32.47
2023-11-29T19:16:47.885Z,40.67
2023-11-29T19:19:16.421Z,41.07
2023-11-29T19:21:46.542Z,40.13
2023-11-29T19:24:15.205Z,38.10
2023-11-29T19:26:43.712Z,36.20
2023-11-29T19:29:12.230Z,38.03
2023-11-29T19:31:40.838Z,35.60
2023-11-29T19:34:10.064Z,50.47
2023-11-29T19:36:38.537Z,45.90
2023-11-29T19:39:08.407Z,47.07
2023-11-29T19:41:37.149Z,50.53
2023-11-29T19:44:05.965Z,58.93
2023-11-29T19:46:34.529Z,55.87
2023-11-29T19:49:03.120Z,39.43
2023-11-29T19:51:31.549Z,43.50
2023-11-29T19:54:00.149Z,47.20
2023-11-29T19:56:30.107Z,39.43
2023-11-29T19:58:58.607Z,34.33
2023-11-29T20:01:29.085Z,27.33
2023-11-29T20:03:57.567Z,19.77
2023-11-29T20:06:31.420Z,16.63
2023-11-29T20:09:04.012Z,15.03
2023-11-29T20:11:37.053Z,14.37
2023-11-29T20:14:10.892Z,13.40
2023-11-29T20:16:45.154Z,13.03
2023-11-29T20:19:13.763Z,12.87
2023-11-29T20:21:42.317Z,17.93
2023-11-29T20:24:10.838Z,15.23
2023-11-29T20:26:40.755Z,12.70
2023-11-29T20:29:09.243Z,13.50
2023-11-29T20:31:38.542Z,17.17
2023-11-29T20:34:14.828Z,14.93
2023-11-29T20:36:49.949Z,13.60
2023-11-29T20:39:18.967Z,12.43
2023-11-29T20:41:51.128Z,16.43
2023-11-29T20:44:20.083Z,35.47
2023-11-29T20:46:49.033Z,36.57
2023-11-29T20:49:17.494Z,41.40
2023-11-29T20:51:45.976Z,48.27
2023-11-29T20:54:14.441Z,31.93
2023-11-29T20:56:43.024Z,38.80
2023-11-29T20:59:13.689Z,37.20
2023-11-29T21:01:42.680Z,43.27
2023-11-29T21:04:13.193Z,39.53
2023-11-29T21:06:42.060Z,33.87
2023-11-29T21:09:10.757Z,29.70
2023-11-29T21:11:39.769Z,32.43
2023-11-29T21:14:08.584Z,23.27
2023-11-29T21:16:38.660Z,21.93
2023-11-29T21:19:07.346Z,12.90
2023-11-29T21:21:35.998Z,14.67
2023-11-29T21:24:05.995Z,14.83
2023-11-29T21:26:34.791Z,15.73
2023-11-29T21:29:03.472Z,10.53
2023-11-29T21:31:33.425Z,12.17
2023-11-29T21:34:03.604Z,14.43
2023-11-29T21:36:32.118Z,10.90
2023-11-29T21:39:01.502Z,11.03
2023-11-29T21:41:33.181Z,10.33
2023-11-29T21:44:01.968Z,16.03
2023-11-29T21:46:30.561Z,16.37
2023-11-29T21:48:59.255Z,13.57
2023-11-29T21:51:30.585Z,13.53
2023-11-29T21:53:59.378Z,10.50
2023-11-29T21:56:28.180Z,16.70
2023-11-29T21:58:56.664Z,15.33
2023-11-29T22:01:26.327Z,10.77
2023-11-29T22:03:55.084Z,15.00
2023-11-29T22:06:25.808Z,12.33
2023-11-29T22:08:55.828Z,10.57
2023-11-29T22:11:24.416Z,12.47
2023-11-29T22:13:53.215Z,11.83
2023-11-29T22:16:25.553Z,13.83
2023-11-29T22:18:56.121Z,11.63
2023-11-29T22:21:26.746Z,13.07
2023-11-29T22:23:57.602Z,15.33
2023-11-29T22:26:27.433Z,9.03
2023-11-29T22:28:56.020Z,9.20
2023-11-29T22:31:24.616Z,10.83
2023-11-29T22:33:53.158Z,10.67
2023-11-29T22:36:22.430Z,11.83
2023-11-29T22:38:51.409Z,9.47
2023-11-29T22:41:26.051Z,7.43
2023-11-29T22:43:55.324Z,10.30
2023-11-29T22:46:26.382Z,11.17
2023-11-29T22:48:55.336Z,12.13
2023-11-29T22:51:25.459Z,12.27
2023-11-29T22:53:54.248Z,12.23
2023-11-29T22:56:27.454Z,11.83
2023-11-29T22:58:56.037Z,13.17
2023-11-29T23:01:28.538Z,9.67
2023-11-29T23:03:57.482Z,15.43
2023-11-29T23:06:26.507Z,12.37
2023-11-29T23:08:55.540Z,14.77
2023-11-29T23:11:24.346Z,11.77
2023-11-29T23:13:54.533Z,13.00
2023-11-29T23:16:23.298Z,13.30
2023-11-29T23:18:52.166Z,11.60
2023-11-29T23:21:21.552Z,14.17
2023-11-29T23:23:50.282Z,12.43
2023-11-29T23:26:19.200Z,13.73
2023-11-29T23:28:47.922Z,11.83
2023-11-29T23:31:17.954Z,16.23
2023-11-29T23:33:46.536Z,13.17
2023-11-29T23:36:15.087Z,46.33
2023-11-29T23:38:43.717Z,58.60
2023-11-29T23:41:15.822Z,94.60
2023-11-29T23:43:44.473Z,17.53
2023-11-29T23:46:13.190Z,40.43
2023-11-29T23:48:43.122Z,22.13
2023-11-29T23:51:13.614Z,48.63
2023-11-29T23:53:43.546Z,19.17
2023-11-29T23:56:14.267Z,12.20
2023-11-29T23:58:43.246Z,14.67
